sensor_id;sensor_type;location;lat;lon;timestamp;pressure;altitude;pressure_sealevel;temperature
40199;BMP280;25906;43.536;26.068;2023-03-23T00:00:35;98918.19;;;8.90
40199;BMP280;25906;43.536;26.068;2023-03-23T00:03:21;98915.91;;;8.92
40199;BMP280;25906;43.536;26.068;2023-03-23T00:06:07;98914.34;;;8.94
40199;BMP280;25906;43.536;26.068;2023-03-23T00:08:54;98908.69;;;8.96
40199;BMP280;25906;43.536;26.068;2023-03-23T00:11:44;98905.25;;;8.99
40199;BMP280;25906;43.536;26.068;2023-03-23T00:14:31;98910.53;;;8.99
40199;BMP280;25906;43.536;26.068;2023-03-23T00:17:27;98902.34;;;8.90
40199;BMP280;25906;43.536;26.068;2023-03-23T00:20:12;98901.22;;;8.91
40199;BMP280;25906;43.536;26.068;2023-03-23T00:22:58;98904.38;;;8.82
40199;BMP280;25906;43.536;26.068;2023-03-23T00:25:51;98901.56;;;8.93
40199;BMP280;25906;43.536;26.068;2023-03-23T00:28:38;98898.56;;;8.91
40199;BMP280;25906;43.536;26.068;2023-03-23T00:31:24;98900.91;;;8.85
40199;BMP280;25906;43.536;26.068;2023-03-23T00:34:09;98893.81;;;8.82
40199;BMP280;25906;43.536;26.068;2023-03-23T00:36:57;98894.28;;;8.77
40199;BMP280;25906;43.536;26.068;2023-03-23T00:39:43;98896.09;;;8.80
40199;BMP280;25906;43.536;26.068;2023-03-23T00:42:31;98890.16;;;8.76
40199;BMP280;25906;43.536;26.068;2023-03-23T00:45:21;98894.34;;;8.73
40199;BMP280;25906;43.536;26.068;2023-03-23T00:48:09;98887.66;;;8.69
40199;BMP280;25906;43.536;26.068;2023-03-23T00:50:55;98884.69;;;8.63
40199;BMP280;25906;43.536;26.068;2023-03-23T00:53:41;98886.53;;;8.66
40199;BMP280;25906;43.536;26.068;2023-03-23T00:56:26;98891.22;;;8.55
40199;BMP280;25906;43.536;26.068;2023-03-23T00:59:12;98886.75;;;8.52
40199;BMP280;25906;43.536;26.068;2023-03-23T01:01:58;98884.94;;;8.49
40199;BMP280;25906;43.536;26.068;2023-03-23T01:04:43;98877.41;;;8.48
40199;BMP280;25906;43.536;26.068;2023-03-23T01:07:32;98874.31;;;8.53
40199;BMP280;25906;43.536;26.068;2023-03-23T01:10:17;98882.28;;;8.49
40199;BMP280;25906;43.536;26.068;2023-03-23T01:13:03;98877.09;;;8.42
40199;BMP280;25906;43.536;26.068;2023-03-23T01:15:48;98880.88;;;8.41
40199;BMP280;25906;43.536;26.068;2023-03-23T01:18:34;98871.94;;;8.35
40199;BMP280;25906;43.536;26.068;2023-03-23T01:21:20;98871.13;;;8.38
40199;BMP280;25906;43.536;26.068;2023-03-23T01:24:06;98867.81;;;8.34
40199;BMP280;25906;43.536;26.068;2023-03-23T01:26:52;98864.19;;;8.24
40199;BMP280;25906;43.536;26.068;2023-03-23T01:29:37;98867.56;;;8.25
40199;BMP280;25906;43.536;26.068;2023-03-23T01:32:23;98868.94;;;8.33
40199;BMP280;25906;43.536;26.068;2023-03-23T01:35:08;98869.81;;;8.26
40199;BMP280;25906;43.536;26.068;2023-03-23T01:37:54;98864.19;;;8.24
40199;BMP280;25906;43.536;26.068;2023-03-23T01:40:40;98873.09;;;8.34
40199;BMP280;25906;43.536;26.068;2023-03-23T01:43:26;98871.31;;;8.27
40199;BMP280;25906;43.536;26.068;2023-03-23T01:46:11;98873.31;;;8.43
40199;BMP280;25906;43.536;26.068;2023-03-23T01:48:59;98871.88;;;8.62
40199;BMP280;25906;43.536;26.068;2023-03-23T01:51:48;98880.69;;;8.79
40199;BMP280;25906;43.536;26.068;2023-03-23T01:54:35;98882.69;;;8.94
40199;BMP280;25906;43.536;26.068;2023-03-23T01:57:24;98883.09;;;8.93
40199;BMP280;25906;43.536;26.068;2023-03-23T02:00:15;98886.53;;;8.90
40199;BMP280;25906;43.536;26.068;2023-03-23T02:03:01;98889.50;;;9.15
40199;BMP280;25906;43.536;26.068;2023-03-23T02:05:46;98895.94;;;9.14
40199;BMP280;25906;43.536;26.068;2023-03-23T02:08:33;98897.38;;;8.95
40199;BMP280;25906;43.536;26.068;2023-03-23T02:11:21;98893.09;;;9.01
40199;BMP280;25906;43.536;26.068;2023-03-23T02:14:07;98895.31;;;9.06
40199;BMP280;25906;43.536;26.068;2023-03-23T02:20:10;98899.25;;;8.71
40199;BMP280;25906;43.536;26.068;2023-03-23T02:35:45;98904.84;;;8.27
40199;BMP280;25906;43.536;26.068;2023-03-23T02:38:37;98914.56;;;8.30
40199;BMP280;25906;43.536;26.068;2023-03-23T02:41:28;98914.66;;;8.23
40199;BMP280;25906;43.536;26.068;2023-03-23T02:44:15;98909.06;;;8.21
40199;BMP280;25906;43.536;26.068;2023-03-23T02:47:04;98913.66;;;8.40
40199;BMP280;25906;43.536;26.068;2023-03-23T02:49:53;98919.78;;;8.37
40199;BMP280;25906;43.536;26.068;2023-03-23T02:52:40;98923.53;;;8.36
40199;BMP280;25906;43.536;26.068;2023-03-23T02:55:28;98913.78;;;8.33
40199;BMP280;25906;43.536;26.068;2023-03-23T02:58:15;98915.31;;;8.30
40199;BMP280;25906;43.536;26.068;2023-03-23T03:04:17;98917.25;;;8.53
40199;BMP280;25906;43.536;26.068;2023-03-23T03:07:15;98917.69;;;8.75
40199;BMP280;25906;43.536;26.068;2023-03-23T03:10:25;98923.94;;;8.85
40199;BMP280;25906;43.536;26.068;2023-03-23T03:16:28;98932.06;;;8.94
40199;BMP280;25906;43.536;26.068;2023-03-23T03:19:30;98934.03;;;8.66
40199;BMP280;25906;43.536;26.068;2023-03-23T03:22:19;98932.91;;;8.64
40199;BMP280;25906;43.536;26.068;2023-03-23T03:25:06;98938.75;;;8.52
40199;BMP280;25906;43.536;26.068;2023-03-23T03:27:52;98943.03;;;8.42
40199;BMP280;25906;43.536;26.068;2023-03-23T03:30:37;98945.09;;;8.58
40199;BMP280;25906;43.536;26.068;2023-03-23T03:33:24;98944.47;;;8.47
40199;BMP280;25906;43.536;26.068;2023-03-23T03:36:18;98943.13;;;8.35
40199;BMP280;25906;43.536;26.068;2023-03-23T03:39:07;98951.19;;;8.24
40199;BMP280;25906;43.536;26.068;2023-03-23T03:41:54;98955.69;;;8.27
40199;BMP280;25906;43.536;26.068;2023-03-23T03:44:40;98952.78;;;8.45
40199;BMP280;25906;43.536;26.068;2023-03-23T03:47:25;98954.66;;;8.18
40199;BMP280;25906;43.536;26.068;2023-03-23T03:50:11;98951.34;;;8.67
40199;BMP280;25906;43.536;26.068;2023-03-23T03:52:56;98950.13;;;8.45
40199;BMP280;25906;43.536;26.068;2023-03-23T03:55:43;98957.72;;;8.43
40199;BMP280;25906;43.536;26.068;2023-03-23T03:58:30;98964.25;;;8.35
40199;BMP280;25906;43.536;26.068;2023-03-23T04:01:21;98957.19;;;8.25
40199;BMP280;25906;43.536;26.068;2023-03-23T04:04:10;98963.41;;;8.11
40199;BMP280;25906;43.536;26.068;2023-03-23T04:06:55;98968.41;;;7.99
40199;BMP280;25906;43.536;26.068;2023-03-23T04:09:46;98967.91;;;8.11
40199;BMP280;25906;43.536;26.068;2023-03-23T04:12:33;98966.47;;;8.06
40199;BMP280;25906;43.536;26.068;2023-03-23T04:15:18;98972.09;;;8.08
40199;BMP280;25906;43.536;26.068;2023-03-23T04:18:04;98965.47;;;7.97
40199;BMP280;25906;43.536;26.068;2023-03-23T04:20:50;98968.28;;;8.13
40199;BMP280;25906;43.536;26.068;2023-03-23T04:23:36;98969.16;;;8.33
40199;BMP280;25906;43.536;26.068;2023-03-23T04:26:21;98966.16;;;8.31
40199;BMP280;25906;43.536;26.068;2023-03-23T04:29:08;98973.97;;;8.38
40199;BMP280;25906;43.536;26.068;2023-03-23T04:31:53;98979.25;;;8.38
40199;BMP280;25906;43.536;26.068;2023-03-23T04:34:40;98975.63;;;8.55
40199;BMP280;25906;43.536;26.068;2023-03-23T04:37:27;98975.44;;;8.43
40199;BMP280;25906;43.536;26.068;2023-03-23T04:40:14;98971.84;;;8.29
40199;BMP280;25906;43.536;26.068;2023-03-23T04:43:00;98970.25;;;8.36
40199;BMP280;25906;43.536;26.068;2023-03-23T04:45:54;98987.53;;;8.67
40199;BMP280;25906;43.536;26.068;2023-03-23T04:48:43;98981.91;;;8.65
40199;BMP280;25906;43.536;26.068;2023-03-23T04:51:29;98986.63;;;8.50
40199;BMP280;25906;43.536;26.068;2023-03-23T04:54:16;98986.19;;;8.55
40199;BMP280;25906;43.536;26.068;2023-03-23T04:57:01;98991.72;;;8.64
40199;BMP280;25906;43.536;26.068;2023-03-23T04:59:48;98987.03;;;8.75
40199;BMP280;25906;43.536;26.068;2023-03-23T05:02:34;98987.38;;;8.51
40199;BMP280;25906;43.536;26.068;2023-03-23T05:05:20;98997.97;;;8.47
40199;BMP280;25906;43.536;26.068;2023-03-23T05:08:06;98998.88;;;8.37
40199;BMP280;25906;43.536;26.068;2023-03-23T05:10:56;98997.53;;;8.52
40199;BMP280;25906;43.536;26.068;2023-03-23T05:13:41;98998.38;;;8.46
40199;BMP280;25906;43.536;26.068;2023-03-23T05:16:29;98999.06;;;8.19
40199;BMP280;25906;43.536;26.068;2023-03-23T05:19:15;98996.84;;;8.18
40199;BMP280;25906;43.536;26.068;2023-03-23T05:22:00;99001.66;;;8.23
40199;BMP280;25906;43.536;26.068;2023-03-23T05:24:48;99001.44;;;8.41
40199;BMP280;25906;43.536;26.068;2023-03-23T05:27:37;99000.69;;;8.40
40199;BMP280;25906;43.536;26.068;2023-03-23T05:30:23;99001.88;;;8.66
40199;BMP280;25906;43.536;26.068;2023-03-23T05:33:08;99002.00;;;8.82
40199;BMP280;25906;43.536;26.068;2023-03-23T05:35:53;98999.69;;;8.88
40199;BMP280;25906;43.536;26.068;2023-03-23T05:38:39;99005.50;;;8.75
40199;BMP280;25906;43.536;26.068;2023-03-23T05:41:30;99005.75;;;8.85
40199;BMP280;25906;43.536;26.068;2023-03-23T05:44:15;99002.50;;;8.73
40199;BMP280;25906;43.536;26.068;2023-03-23T05:47:00;99007.00;;;8.77
40199;BMP280;25906;43.536;26.068;2023-03-23T05:49:46;99014.97;;;8.73
40199;BMP280;25906;43.536;26.068;2023-03-23T05:52:32;99013.97;;;8.90
40199;BMP280;25906;43.536;26.068;2023-03-23T05:55:20;99014.75;;;8.87
40199;BMP280;25906;43.536;26.068;2023-03-23T05:58:05;99020.66;;;8.98
40199;BMP280;25906;43.536;26.068;2023-03-23T06:00:51;99015.69;;;9.00
40199;BMP280;25906;43.536;26.068;2023-03-23T06:03:36;99016.91;;;8.96
40199;BMP280;25906;43.536;26.068;2023-03-23T06:06:22;99017.81;;;9.09
40199;BMP280;25906;43.536;26.068;2023-03-23T06:09:07;99016.75;;;9.06
40199;BMP280;25906;43.536;26.068;2023-03-23T06:11:53;99024.50;;;9.17
40199;BMP280;25906;43.536;26.068;2023-03-23T06:14:38;99020.81;;;9.34
40199;BMP280;25906;43.536;26.068;2023-03-23T06:17:24;99023.41;;;9.14
40199;BMP280;25906;43.536;26.068;2023-03-23T06:20:10;99026.84;;;9.11
40199;BMP280;25906;43.536;26.068;2023-03-23T06:22:56;99028.75;;;9.34
40199;BMP280;25906;43.536;26.068;2023-03-23T06:25:41;99029.81;;;9.37
40199;BMP280;25906;43.536;26.068;2023-03-23T06:28:27;99035.16;;;9.33
40199;BMP280;25906;43.536;26.068;2023-03-23T06:31:13;99041.38;;;9.23
40199;BMP280;25906;43.536;26.068;2023-03-23T06:33:58;99048.72;;;9.35
40199;BMP280;25906;43.536;26.068;2023-03-23T06:36:43;99049.94;;;9.31
40199;BMP280;25906;43.536;26.068;2023-03-23T06:39:29;99047.31;;;9.54
40199;BMP280;25906;43.536;26.068;2023-03-23T06:42:15;99042.22;;;9.83
40199;BMP280;25906;43.536;26.068;2023-03-23T06:45:00;99048.53;;;9.69
40199;BMP280;25906;43.536;26.068;2023-03-23T06:47:47;99051.19;;;9.69
40199;BMP280;25906;43.536;26.068;2023-03-23T06:50:33;99054.59;;;9.89
40199;BMP280;25906;43.536;26.068;2023-03-23T06:53:19;99052.81;;;9.83
40199;BMP280;25906;43.536;26.068;2023-03-23T06:56:06;99053.44;;;9.71
40199;BMP280;25906;43.536;26.068;2023-03-23T06:58:52;99050.50;;;9.85
40199;BMP280;25906;43.536;26.068;2023-03-23T07:01:37;99054.41;;;9.80
40199;BMP280;25906;43.536;26.068;2023-03-23T07:04:23;99058.09;;;9.83
40199;BMP280;25906;43.536;26.068;2023-03-23T07:07:09;99059.88;;;9.89
40199;BMP280;25906;43.536;26.068;2023-03-23T07:09:57;99057.31;;;10.05
40199;BMP280;25906;43.536;26.068;2023-03-23T07:12:43;99057.53;;;9.95
40199;BMP280;25906;43.536;26.068;2023-03-23T07:15:28;99067.41;;;10.10
40199;BMP280;25906;43.536;26.068;2023-03-23T07:18:14;99067.72;;;10.32
40199;BMP280;25906;43.536;26.068;2023-03-23T07:20:59;99070.53;;;10.05
40199;BMP280;25906;43.536;26.068;2023-03-23T07:23:45;99077.59;;;10.32
40199;BMP280;25906;43.536;26.068;2023-03-23T07:26:31;99076.84;;;10.31
40199;BMP280;25906;43.536;26.068;2023-03-23T07:29:17;99079.41;;;10.35
40199;BMP280;25906;43.536;26.068;2023-03-23T07:32:03;99083.72;;;10.45
40199;BMP280;25906;43.536;26.068;2023-03-23T07:34:48;99087.47;;;10.47
40199;BMP280;25906;43.536;26.068;2023-03-23T07:37:34;99081.59;;;10.76
40199;BMP280;25906;43.536;26.068;2023-03-23T07:40:19;99085.97;;;10.82
40199;BMP280;25906;43.536;26.068;2023-03-23T07:43:06;99086.63;;;10.86
40199;BMP280;25906;43.536;26.068;2023-03-23T07:45:52;99091.56;;;11.04
40199;BMP280;25906;43.536;26.068;2023-03-23T07:48:37;99092.03;;;10.99
40199;BMP280;25906;43.536;26.068;2023-03-23T07:51:23;99097.06;;;10.93
40199;BMP280;25906;43.536;26.068;2023-03-23T07:54:09;99096.69;;;11.11
40199;BMP280;25906;43.536;26.068;2023-03-23T07:56:54;99104.53;;;10.98
40199;BMP280;25906;43.536;26.068;2023-03-23T07:59:40;99098.31;;;10.89
40199;BMP280;25906;43.536;26.068;2023-03-23T08:02:26;99108.03;;;11.12
40199;BMP280;25906;43.536;26.068;2023-03-23T08:05:12;99110.41;;;11.06
40199;BMP280;25906;43.536;26.068;2023-03-23T08:08:01;99107.47;;;11.20
40199;BMP280;25906;43.536;26.068;2023-03-23T08:10:46;99108.19;;;11.21
40199;BMP280;25906;43.536;26.068;2023-03-23T08:13:32;99111.50;;;11.25
40199;BMP280;25906;43.536;26.068;2023-03-23T08:16:18;99112.81;;;11.33
40199;BMP280;25906;43.536;26.068;2023-03-23T08:19:04;99116.66;;;11.32
40199;BMP280;25906;43.536;26.068;2023-03-23T08:21:50;99112.56;;;11.43
40199;BMP280;25906;43.536;26.068;2023-03-23T08:24:35;99113.41;;;11.40
40199;BMP280;25906;43.536;26.068;2023-03-23T08:27:21;99112.50;;;11.47
40199;BMP280;25906;43.536;26.068;2023-03-23T08:30:07;99113.69;;;11.75
40199;BMP280;25906;43.536;26.068;2023-03-23T08:32:52;99107.59;;;11.62
40199;BMP280;25906;43.536;26.068;2023-03-23T08:35:38;99112.38;;;11.67
40199;BMP280;25906;43.536;26.068;2023-03-23T08:38:23;99113.06;;;11.38
40199;BMP280;25906;43.536;26.068;2023-03-23T08:41:09;99106.88;;;11.74
40199;BMP280;25906;43.536;26.068;2023-03-23T08:43:55;99106.84;;;11.90
40199;BMP280;25906;43.536;26.068;2023-03-23T08:46:42;99114.25;;;12.11
40199;BMP280;25906;43.536;26.068;2023-03-23T08:49:27;99110.03;;;12.26
40199;BMP280;25906;43.536;26.068;2023-03-23T08:52:12;99107.25;;;12.17
40199;BMP280;25906;43.536;26.068;2023-03-23T08:54:58;99105.09;;;12.12
40199;BMP280;25906;43.536;26.068;2023-03-23T08:57:44;99115.34;;;12.26
40199;BMP280;25906;43.536;26.068;2023-03-23T09:00:30;99108.16;;;11.98
40199;BMP280;25906;43.536;26.068;2023-03-23T09:03:15;99109.28;;;12.26
40199;BMP280;25906;43.536;26.068;2023-03-23T09:06:05;99108.75;;;12.31
40199;BMP280;25906;43.536;26.068;2023-03-23T09:08:53;99116.03;;;12.43
40199;BMP280;25906;43.536;26.068;2023-03-23T09:11:39;99107.75;;;12.41
40199;BMP280;25906;43.536;26.068;2023-03-23T09:14:24;99101.91;;;12.59
40199;BMP280;25906;43.536;26.068;2023-03-23T09:17:10;99108.91;;;12.40
40199;BMP280;25906;43.536;26.068;2023-03-23T09:19:56;99102.09;;;12.51
40199;BMP280;25906;43.536;26.068;2023-03-23T09:22:46;99100.31;;;12.61
40199;BMP280;25906;43.536;26.068;2023-03-23T09:25:32;99096.50;;;12.62
40199;BMP280;25906;43.536;26.068;2023-03-23T09:28:18;99098.69;;;13.01
40199;BMP280;25906;43.536;26.068;2023-03-23T09:31:04;99099.03;;;12.40
40199;BMP280;25906;43.536;26.068;2023-03-23T09:33:49;99102.94;;;12.99
40199;BMP280;25906;43.536;26.068;2023-03-23T09:36:39;99104.00;;;13.14
40199;BMP280;25906;43.536;26.068;2023-03-23T09:39:24;99104.44;;;13.13
40199;BMP280;25906;43.536;26.068;2023-03-23T09:42:18;99097.81;;;13.17
40199;BMP280;25906;43.536;26.068;2023-03-23T09:45:25;99098.47;;;13.21
40199;BMP280;25906;43.536;26.068;2023-03-23T09:56:59;99102.00;;;12.80
40199;BMP280;25906;43.536;26.068;2023-03-23T09:59:54;99102.50;;;13.13
40199;BMP280;25906;43.536;26.068;2023-03-23T10:03:06;99097.28;;;13.57
40199;BMP280;25906;43.536;26.068;2023-03-23T10:05:53;99094.25;;;13.45
40199;BMP280;25906;43.536;26.068;2023-03-23T10:08:44;99102.31;;;13.55
40199;BMP280;25906;43.536;26.068;2023-03-23T10:12:02;99106.91;;;13.63
40199;BMP280;25906;43.536;26.068;2023-03-23T10:14:59;99097.00;;;13.55
40199;BMP280;25906;43.536;26.068;2023-03-23T10:18:04;99099.56;;;13.45
40199;BMP280;25906;43.536;26.068;2023-03-23T10:21:00;99092.16;;;13.62
40199;BMP280;25906;43.536;26.068;2023-03-23T10:24:14;99091.81;;;13.38
40199;BMP280;25906;43.536;26.068;2023-03-23T10:27:17;99093.28;;;13.39
40199;BMP280;25906;43.536;26.068;2023-03-23T10:36:34;99080.47;;;13.60
40199;BMP280;25906;43.536;26.068;2023-03-23T10:39:15;99078.25;;;13.80
40199;BMP280;25906;43.536;26.068;2023-03-23T10:42:02;99084.91;;;14.06
40199;BMP280;25906;43.536;26.068;2023-03-23T10:44:53;99076.94;;;13.84
40199;BMP280;25906;43.536;26.068;2023-03-23T10:47:53;99069.31;;;13.95
40199;BMP280;25906;43.536;26.068;2023-03-23T10:50:41;99070.31;;;13.89
40199;BMP280;25906;43.536;26.068;2023-03-23T10:53:33;99067.09;;;14.16
40199;BMP280;25906;43.536;26.068;2023-03-23T10:56:36;99061.31;;;13.86
40199;BMP280;25906;43.536;26.068;2023-03-23T10:59:31;99068.16;;;13.96
40199;BMP280;25906;43.536;26.068;2023-03-23T11:02:23;99058.28;;;14.06
40199;BMP280;25906;43.536;26.068;2023-03-23T11:08:01;99052.81;;;13.79
40199;BMP280;25906;43.536;26.068;2023-03-23T11:10:49;99046.44;;;13.76
40199;BMP280;25906;43.536;26.068;2023-03-23T11:13:40;99047.88;;;13.68
40199;BMP280;25906;43.536;26.068;2023-03-23T11:19:15;99045.56;;;13.79
40199;BMP280;25906;43.536;26.068;2023-03-23T11:24:53;99042.06;;;14.13
40199;BMP280;25906;43.536;26.068;2023-03-23T11:27:39;99039.56;;;14.19
40199;BMP280;25906;43.536;26.068;2023-03-23T11:30:27;99038.81;;;14.09
40199;BMP280;25906;43.536;26.068;2023-03-23T11:33:15;99044.16;;;14.18
40199;BMP280;25906;43.536;26.068;2023-03-23T11:36:01;99038.38;;;14.20
40199;BMP280;25906;43.536;26.068;2023-03-23T11:38:47;99034.22;;;13.88
40199;BMP280;25906;43.536;26.068;2023-03-23T11:41:35;99035.78;;;13.98
40199;BMP280;25906;43.536;26.068;2023-03-23T11:44:23;99038.63;;;13.82
40199;BMP280;25906;43.536;26.068;2023-03-23T11:50:10;99029.00;;;13.75
40199;BMP280;25906;43.536;26.068;2023-03-23T11:56:15;99028.91;;;13.88
40199;BMP280;25906;43.536;26.068;2023-03-23T11:59:09;99023.44;;;14.13
40199;BMP280;25906;43.536;26.068;2023-03-23T12:02:22;99022.06;;;14.39
40199;BMP280;25906;43.536;26.068;2023-03-23T12:23:24;99002.28;;;14.59
40199;BMP280;25906;43.536;26.068;2023-03-23T12:26:18;98998.44;;;14.78
40199;BMP280;25906;43.536;26.068;2023-03-23T12:29:16;98999.78;;;15.00
40199;BMP280;25906;43.536;26.068;2023-03-23T12:35:27;98987.53;;;15.03
40199;BMP280;25906;43.536;26.068;2023-03-23T12:38:34;98992.66;;;14.61
40199;BMP280;25906;43.536;26.068;2023-03-23T12:41:29;98990.63;;;15.01
40199;BMP280;25906;43.536;26.068;2023-03-23T12:44:23;98986.94;;;14.81
40199;BMP280;25906;43.536;26.068;2023-03-23T12:47:24;98989.56;;;15.08
40199;BMP280;25906;43.536;26.068;2023-03-23T12:50:16;98994.16;;;15.26
40199;BMP280;25906;43.536;26.068;2023-03-23T12:53:15;98992.53;;;15.28
40199;BMP280;25906;43.536;26.068;2023-03-23T12:56:31;99001.28;;;15.01
40199;BMP280;25906;43.536;26.068;2023-03-23T13:02:20;98995.06;;;14.86
40199;BMP280;25906;43.536;26.068;2023-03-23T13:05:29;98996.06;;;14.62
40199;BMP280;25906;43.536;26.068;2023-03-23T13:08:24;98994.00;;;14.75
40199;BMP280;25906;43.536;26.068;2023-03-23T13:11:18;98991.38;;;15.02
40199;BMP280;25906;43.536;26.068;2023-03-23T13:23:14;98983.66;;;14.86
40199;BMP280;25906;43.536;26.068;2023-03-23T13:26:16;98980.44;;;14.82
40199;BMP280;25906;43.536;26.068;2023-03-23T13:32:36;98969.09;;;14.50
40199;BMP280;25906;43.536;26.068;2023-03-23T13:35:22;98962.03;;;14.75
40199;BMP280;25906;43.536;26.068;2023-03-23T13:38:19;98960.97;;;14.45
40199;BMP280;25906;43.536;26.068;2023-03-23T13:41:08;98958.44;;;14.32
40199;BMP280;25906;43.536;26.068;2023-03-23T13:44:13;98962.88;;;14.35
40199;BMP280;25906;43.536;26.068;2023-03-23T13:47:24;98959.38;;;14.57
40199;BMP280;25906;43.536;26.068;2023-03-23T13:50:44;98958.44;;;14.41
40199;BMP280;25906;43.536;26.068;2023-03-23T13:53:45;98964.03;;;14.34
40199;BMP280;25906;43.536;26.068;2023-03-23T13:56:46;98954.88;;;14.35
40199;BMP280;25906;43.536;26.068;2023-03-23T13:59:46;98957.56;;;14.53
40199;BMP280;25906;43.536;26.068;2023-03-23T14:02:36;98957.28;;;14.51
40199;BMP280;25906;43.536;26.068;2023-03-23T14:10:58;98952.50;;;14.37
40199;BMP280;25906;43.536;26.068;2023-03-23T14:14:06;98952.22;;;14.35
40199;BMP280;25906;43.536;26.068;2023-03-23T14:16:52;98950.66;;;14.07
40199;BMP280;25906;43.536;26.068;2023-03-23T14:19:38;98947.06;;;13.92
40199;BMP280;25906;43.536;26.068;2023-03-23T14:22:35;98950.66;;;14.07
40199;BMP280;25906;43.536;26.068;2023-03-23T14:25:21;98957.97;;;14.25
40199;BMP280;25906;43.536;26.068;2023-03-23T14:28:20;98960.03;;;14.30
40199;BMP280;25906;43.536;26.068;2023-03-23T14:34:16;98955.78;;;14.41
40199;BMP280;25906;43.536;26.068;2023-03-23T14:37:03;98956.72;;;14.66
40199;BMP280;25906;43.536;26.068;2023-03-23T14:39:53;98945.78;;;14.64
40199;BMP280;25906;43.536;26.068;2023-03-23T14:42:39;98941.59;;;14.44
40199;BMP280;25906;43.536;26.068;2023-03-23T14:45:25;98949.44;;;14.48
40199;BMP280;25906;43.536;26.068;2023-03-23T14:48:13;98950.50;;;14.69
40199;BMP280;25906;43.536;26.068;2023-03-23T14:51:02;98944.25;;;14.44
40199;BMP280;25906;43.536;26.068;2023-03-23T14:53:52;98939.06;;;14.59
40199;BMP280;25906;43.536;26.068;2023-03-23T14:56:40;98939.69;;;14.72
40199;BMP280;25906;43.536;26.068;2023-03-23T14:59:26;98946.06;;;14.57
40199;BMP280;25906;43.536;26.068;2023-03-23T15:05:08;98945.13;;;14.60
40199;BMP280;25906;43.536;26.068;2023-03-23T15:07:58;98939.25;;;14.55
40199;BMP280;25906;43.536;26.068;2023-03-23T15:13:58;98941.00;;;14.59
40199;BMP280;25906;43.536;26.068;2023-03-23T15:16:51;98936.00;;;14.79
40199;BMP280;25906;43.536;26.068;2023-03-23T15:19:43;98935.84;;;14.73
40199;BMP280;25906;43.536;26.068;2023-03-23T15:22:29;98939.09;;;14.77
40199;BMP280;25906;43.536;26.068;2023-03-23T15:25:29;98941.59;;;14.53
40199;BMP280;25906;43.536;26.068;2023-03-23T15:28:27;98937.59;;;14.40
40199;BMP280;25906;43.536;26.068;2023-03-23T15:31:13;98937.28;;;14.29
40199;BMP280;25906;43.536;26.068;2023-03-23T15:34:01;98937.34;;;14.07
40199;BMP280;25906;43.536;26.068;2023-03-23T15:36:52;98940.06;;;14.16
40199;BMP280;25906;43.536;26.068;2023-03-23T15:39:40;98938.53;;;14.06
40199;BMP280;25906;43.536;26.068;2023-03-23T15:42:28;98947.25;;;14.07
40199;BMP280;25906;43.536;26.068;2023-03-23T15:48:12;98941.91;;;13.97
40199;BMP280;25906;43.536;26.068;2023-03-23T15:50:58;98942.13;;;13.81
40199;BMP280;25906;43.536;26.068;2023-03-23T15:53:44;98944.03;;;13.81
40199;BMP280;25906;43.536;26.068;2023-03-23T15:56:30;98946.00;;;13.89
40199;BMP280;25906;43.536;26.068;2023-03-23T15:59:16;98940.13;;;13.64
40199;BMP280;25906;43.536;26.068;2023-03-23T16:02:01;98942.78;;;13.64
40199;BMP280;25906;43.536;26.068;2023-03-23T16:04:48;98945.84;;;13.53
40199;BMP280;25906;43.536;26.068;2023-03-23T16:07:34;98948.00;;;13.45
40199;BMP280;25906;43.536;26.068;2023-03-23T16:10:21;98937.81;;;13.44
40199;BMP280;25906;43.536;26.068;2023-03-23T16:13:07;98943.81;;;13.35
40199;BMP280;25906;43.536;26.068;2023-03-23T16:15:53;98941.59;;;13.34
40199;BMP280;25906;43.536;26.068;2023-03-23T16:18:38;98945.47;;;13.42
40199;BMP280;25906;43.536;26.068;2023-03-23T16:21:24;98948.41;;;13.35
40199;BMP280;25906;43.536;26.068;2023-03-23T16:24:09;98953.97;;;13.28
40199;BMP280;25906;43.536;26.068;2023-03-23T16:26:55;98953.78;;;13.22
40199;BMP280;25906;43.536;26.068;2023-03-23T16:29:40;98951.97;;;13.19
40199;BMP280;25906;43.536;26.068;2023-03-23T16:32:26;98958.31;;;13.00
40199;BMP280;25906;43.536;26.068;2023-03-23T16:35:13;98956.03;;;12.89
40199;BMP280;25906;43.536;26.068;2023-03-23T16:37:59;98947.78;;;12.75
40199;BMP280;25906;43.536;26.068;2023-03-23T16:40:45;98947.16;;;12.58
40199;BMP280;25906;43.536;26.068;2023-03-23T16:43:30;98959.63;;;12.48
40199;BMP280;25906;43.536;26.068;2023-03-23T16:46:16;98960.88;;;12.31
40199;BMP280;25906;43.536;26.068;2023-03-23T16:49:02;98960.88;;;12.31
40199;BMP280;25906;43.536;26.068;2023-03-23T16:51:47;98959.84;;;12.29
40199;BMP280;25906;43.536;26.068;2023-03-23T16:54:33;98961.31;;;12.17
40199;BMP280;25906;43.536;26.068;2023-03-23T16:57:18;98963.44;;;12.10
40199;BMP280;25906;43.536;26.068;2023-03-23T17:00:07;98954.31;;;11.98
40199;BMP280;25906;43.536;26.068;2023-03-23T17:02:54;98954.63;;;11.87
40199;BMP280;25906;43.536;26.068;2023-03-23T17:05:41;98958.13;;;11.84
40199;BMP280;25906;43.536;26.068;2023-03-23T17:08:27;98959.00;;;11.94
40199;BMP280;25906;43.536;26.068;2023-03-23T17:11:12;98960.47;;;11.95
40199;BMP280;25906;43.536;26.068;2023-03-23T17:13:58;98961.50;;;11.85
40199;BMP280;25906;43.536;26.068;2023-03-23T17:16:43;98961.78;;;11.74
40199;BMP280;25906;43.536;26.068;2023-03-23T17:19:29;98961.25;;;11.67
40199;BMP280;25906;43.536;26.068;2023-03-23T17:22:14;98972.34;;;11.49
40199;BMP280;25906;43.536;26.068;2023-03-23T17:25:00;98969.31;;;11.34
40199;BMP280;25906;43.536;26.068;2023-03-23T17:27:46;98974.28;;;11.32
40199;BMP280;25906;43.536;26.068;2023-03-23T17:30:31;98974.41;;;11.13
40199;BMP280;25906;43.536;26.068;2023-03-23T17:33:17;98982.03;;;11.11
40199;BMP280;25906;43.536;26.068;2023-03-23T17:36:02;98985.94;;;11.06
40199;BMP280;25906;43.536;26.068;2023-03-23T17:38:48;98985.09;;;10.93
40199;BMP280;25906;43.536;26.068;2023-03-23T17:41:34;98982.81;;;10.79
40199;BMP280;25906;43.536;26.068;2023-03-23T17:44:20;98989.75;;;10.89
40199;BMP280;25906;43.536;26.068;2023-03-23T17:47:05;98984.47;;;10.73
40199;BMP280;25906;43.536;26.068;2023-03-23T17:49:51;98992.97;;;10.64